sensor_id;sensor_type;location;lat;lon;timestamp;pressure;altitude;pressure_sealevel;temperature;humidity
69247;BME280;56358;56.328;43.992;2023-05-08T00:01:39;101899.94;;;1.66;59.14
69247;BME280;56358;56.328;43.992;2023-05-08T00:03:40;101887.66;;;1.63;59.40
69247;BME280;56358;56.328;43.992;2023-05-08T00:05:40;101880.69;;;1.61;59.16
69247;BME280;56358;56.328;43.992;2023-05-08T00:07:41;101900.09;;;1.60;58.97
69247;BME280;56358;56.328;43.992;2023-05-08T00:09:42;101864.22;;;1.45;59.45
69247;BME280;56358;56.328;43.992;2023-05-08T00:11:43;101803.19;;;1.09;59.30
69247;BME280;56358;56.328;43.992;2023-05-08T00:13:44;101862.50;;;1.42;59.50
69247;BME280;56358;56.328;43.992;2023-05-08T00:15:45;101799.81;;;0.99;59.63
69247;BME280;56358;56.328;43.992;2023-05-08T00:17:45;101890.56;;;1.49;60.26
69247;BME280;56358;56.328;43.992;2023-05-08T00:19:46;101880.09;;;1.43;60.05
69247;BME280;56358;56.328;43.992;2023-05-08T00:21:47;101876.56;;;1.43;60.22
69247;BME280;56358;56.328;43.992;2023-05-08T00:23:47;101883.69;;;1.39;60.67
69247;BME280;56358;56.328;43.992;2023-05-08T00:25:48;101895.94;;;1.43;60.77
69247;BME280;56358;56.328;43.992;2023-05-08T00:27:49;101827.91;;;1.05;60.70
69247;BME280;56358;56.328;43.992;2023-05-08T00:29:50;101891.72;;;1.33;60.98
69247;BME280;56358;56.328;43.992;2023-05-08T00:31:51;101897.78;;;1.40;61.17
69247;BME280;56358;56.328;43.992;2023-05-08T00:33:52;101898.72;;;1.36;61.33
69247;BME280;56358;56.328;43.992;2023-05-08T00:35:59;101889.22;;;1.25;61.63
69247;BME280;56358;56.328;43.992;2023-05-08T00:38:00;101899.72;;;1.28;62.17
69247;BME280;56358;56.328;43.992;2023-05-08T00:40:01;101843.31;;;0.78;62.23
69247;BME280;56358;56.328;43.992;2023-05-08T00:42:03;101878.88;;;1.10;62.50
69247;BME280;56358;56.328;43.992;2023-05-08T00:44:03;101898.13;;;1.16;62.74
69247;BME280;56358;56.328;43.992;2023-05-08T00:46:04;101896.44;;;1.12;62.76
69247;BME280;56358;56.328;43.992;2023-05-08T00:48:06;101909.66;;;1.12;62.52
69247;BME280;56358;56.328;43.992;2023-05-08T00:50:08;101890.50;;;0.99;63.13
69247;BME280;56358;56.328;43.992;2023-05-08T00:52:09;101903.63;;;1.04;63.16
69247;BME280;56358;56.328;43.992;2023-05-08T00:54:10;101917.63;;;1.09;62.79
69247;BME280;56358;56.328;43.992;2023-05-08T00:56:13;101918.56;;;1.07;62.88
69247;BME280;56358;56.328;43.992;2023-05-08T00:58:14;101918.63;;;1.02;62.90
69247;BME280;56358;56.328;43.992;2023-05-08T01:00:16;101934.53;;;0.97;62.79
69247;BME280;56358;56.328;43.992;2023-05-08T01:02:18;101840.34;;;0.37;62.95
69247;BME280;56358;56.328;43.992;2023-05-08T01:04:23;101929.34;;;0.90;63.20
69247;BME280;56358;56.328;43.992;2023-05-08T01:06:24;101909.31;;;0.78;63.25
69247;BME280;56358;56.328;43.992;2023-05-08T01:08:25;101836.94;;;0.29;63.33
69247;BME280;56358;56.328;43.992;2023-05-08T01:15:33;101941.91;;;0.72;64.10
69247;BME280;56358;56.328;43.992;2023-05-08T01:22:37;101941.22;;;0.59;64.33
69247;BME280;56358;56.328;43.992;2023-05-08T01:25:07;101950.94;;;0.56;64.55
69247;BME280;56358;56.328;43.992;2023-05-08T01:30:06;101926.47;;;0.41;64.99
69247;BME280;56358;56.328;43.992;2023-05-08T01:32:28;101944.81;;;0.52;64.97
69247;BME280;56358;56.328;43.992;2023-05-08T01:34:31;101941.28;;;0.53;64.73
69247;BME280;56358;56.328;43.992;2023-05-08T01:36:38;101948.31;;;0.54;65.00
69247;BME280;56358;56.328;43.992;2023-05-08T01:38:55;101872.34;;;0.12;65.05
69247;BME280;56358;56.328;43.992;2023-05-08T01:41:08;101962.38;;;0.55;65.03
69247;BME280;56358;56.328;43.992;2023-05-08T01:43:17;101959.75;;;0.55;64.91
69247;BME280;56358;56.328;43.992;2023-05-08T01:45:31;101940.47;;;0.48;65.32
69247;BME280;56358;56.328;43.992;2023-05-08T01:47:36;101916.88;;;0.37;65.48
69247;BME280;56358;56.328;43.992;2023-05-08T01:49:41;101957.03;;;0.61;65.54
69247;BME280;56358;56.328;43.992;2023-05-08T01:51:47;101945.75;;;0.51;65.42
69247;BME280;56358;56.328;43.992;2023-05-08T01:53:51;101866.13;;;0.16;65.19
69247;BME280;56358;56.328;43.992;2023-05-08T01:55:57;101956.06;;;0.68;65.24
69247;BME280;56358;56.328;43.992;2023-05-08T01:58:00;101950.75;;;0.71;65.04
69247;BME280;56358;56.328;43.992;2023-05-08T02:00:02;101960.31;;;0.80;65.01
69247;BME280;56358;56.328;43.992;2023-05-08T02:02:08;101962.06;;;0.81;65.11
69247;BME280;56358;56.328;43.992;2023-05-08T02:04:10;101969.13;;;0.79;65.43
69247;BME280;56358;56.328;43.992;2023-05-08T02:06:13;101964.78;;;0.73;65.43
69247;BME280;56358;56.328;43.992;2023-05-08T02:08:17;101950.00;;;0.60;65.44
69247;BME280;56358;56.328;43.992;2023-05-08T02:10:19;101962.09;;;0.79;65.70
69247;BME280;56358;56.328;43.992;2023-05-08T02:12:22;101902.66;;;0.49;65.54
69247;BME280;56358;56.328;43.992;2023-05-08T02:14:25;101986.53;;;0.94;65.50
69247;BME280;56358;56.328;43.992;2023-05-08T02:16:27;101982.03;;;0.99;65.41
69247;BME280;56358;56.328;43.992;2023-05-08T02:18:30;102003.06;;;1.07;65.29
69247;BME280;56358;56.328;43.992;2023-05-08T02:20:32;101974.13;;;1.00;65.03
69247;BME280;56358;56.328;43.992;2023-05-08T02:22:33;101994.19;;;1.14;64.99
69247;BME280;56358;56.328;43.992;2023-05-08T02:24:35;101975.69;;;1.12;64.76
69247;BME280;56358;56.328;43.992;2023-05-08T02:26:38;101996.59;;;1.29;64.53
69247;BME280;56358;56.328;43.992;2023-05-08T02:28:40;101933.75;;;0.91;64.40
69247;BME280;56358;56.328;43.992;2023-05-08T02:30:42;102004.38;;;1.39;64.46
69247;BME280;56358;56.328;43.992;2023-05-08T02:32:45;102005.19;;;1.44;64.12
69247;BME280;56358;56.328;43.992;2023-05-08T02:34:48;102009.59;;;1.45;64.38
69247;BME280;56358;56.328;43.992;2023-05-08T02:36:51;102001.75;;;1.37;63.90
69247;BME280;56358;56.328;43.992;2023-05-08T02:38:53;101992.91;;;1.40;63.89
69247;BME280;56358;56.328;43.992;2023-05-08T02:40:58;102010.34;;;1.53;63.63
69247;BME280;56358;56.328;43.992;2023-05-08T02:43:00;102014.63;;;1.60;63.42
69247;BME280;56358;56.328;43.992;2023-05-08T02:45:02;101988.28;;;1.53;63.45
69247;BME280;56358;56.328;43.992;2023-05-08T02:47:16;102021.47;;;1.72;63.15
69247;BME280;56358;56.328;43.992;2023-05-08T02:49:59;101914.88;;;1.17;62.81
69247;BME280;56358;56.328;43.992;2023-05-08T02:52:09;102017.81;;;1.79;62.85
69247;BME280;56358;56.328;43.992;2023-05-08T02:54:32;102019.56;;;1.82;62.68
69247;BME280;56358;56.328;43.992;2023-05-08T02:56:52;102018.63;;;1.84;62.83
69247;BME280;56358;56.328;43.992;2023-05-08T02:59:03;102019.53;;;1.85;62.86
69247;BME280;56358;56.328;43.992;2023-05-08T03:01:26;102030.88;;;1.92;62.87
69247;BME280;56358;56.328;43.992;2023-05-08T03:03:38;102021.06;;;1.97;62.63
69247;BME280;56358;56.328;43.992;2023-05-08T03:05:46;101985.19;;;1.80;62.49
69247;BME280;56358;56.328;43.992;2023-05-08T03:07:50;101973.81;;;1.75;62.48
69247;BME280;56358;56.328;43.992;2023-05-08T03:10:04;102038.47;;;2.10;62.29
69247;BME280;56358;56.328;43.992;2023-05-08T03:12:13;102026.13;;;2.11;62.34
69247;BME280;56358;56.328;43.992;2023-05-08T03:14:18;102021.66;;;2.14;62.09
69247;BME280;56358;56.328;43.992;2023-05-08T03:16:23;102048.75;;;2.27;61.73
69247;BME280;56358;56.328;43.992;2023-05-08T03:18:29;101994.47;;;2.05;61.85
69247;BME280;56358;56.328;43.992;2023-05-08T03:20:42;102056.53;;;2.37;61.55
69247;BME280;56358;56.328;43.992;2023-05-08T03:22:45;101968.94;;;2.02;61.27
69247;BME280;56358;56.328;43.992;2023-05-08T03:24:48;102049.31;;;2.45;61.30
69247;BME280;56358;56.328;43.992;2023-05-08T03:26:50;102042.09;;;2.55;60.91
69247;BME280;56358;56.328;43.992;2023-05-08T03:28:52;102044.53;;;2.65;60.75
69247;BME280;56358;56.328;43.992;2023-05-08T03:30:54;102043.22;;;2.85;60.31
69247;BME280;56358;56.328;43.992;2023-05-08T03:32:56;102044.91;;;2.91;59.64
69247;BME280;56358;56.328;43.992;2023-05-08T03:34:58;102054.38;;;3.01;59.73
69247;BME280;56358;56.328;43.992;2023-05-08T03:36:59;102057.72;;;3.09;59.09
69247;BME280;56358;56.328;43.992;2023-05-08T03:39:00;102051.47;;;3.13;59.08
69247;BME280;56358;56.328;43.992;2023-05-08T03:41:01;102049.63;;;3.17;59.08
69247;BME280;56358;56.328;43.992;2023-05-08T03:43:06;102060.97;;;3.24;59.04
69247;BME280;56358;56.328;43.992;2023-05-08T03:45:08;102038.91;;;3.23;59.12
69247;BME280;56358;56.328;43.992;2023-05-08T03:47:10;102057.09;;;3.39;58.87
69247;BME280;56358;56.328;43.992;2023-05-08T03:49:11;102049.06;;;3.43;58.61
69247;BME280;56358;56.328;43.992;2023-05-08T03:51:14;102045.56;;;3.41;58.60
69247;BME280;56358;56.328;43.992;2023-05-08T03:53:15;102059.34;;;3.57;58.17
69247;BME280;56358;56.328;43.992;2023-05-08T03:55:16;102059.19;;;3.63;57.92
69247;BME280;56358;56.328;43.992;2023-05-08T03:57:17;102060.81;;;3.69;57.93
69247;BME280;56358;56.328;43.992;2023-05-08T04:01:31;102058.31;;;3.63;57.97
69247;BME280;56358;56.328;43.992;2023-05-08T04:03:53;102030.19;;;3.56;57.67
69247;BME280;56358;56.328;43.992;2023-05-08T04:08:18;102075.84;;;4.06;57.18
69247;BME280;56358;56.328;43.992;2023-05-08T04:10:29;102077.44;;;4.13;57.09
69247;BME280;56358;56.328;43.992;2023-05-08T04:12:37;102076.34;;;4.22;56.65
69247;BME280;56358;56.328;43.992;2023-05-08T04:14:59;102077.06;;;4.27;56.15
69247;BME280;56358;56.328;43.992;2023-05-08T04:17:08;102066.53;;;4.24;55.76
69247;BME280;56358;56.328;43.992;2023-05-08T04:19:18;102088.38;;;4.35;55.93
69247;BME280;56358;56.328;43.992;2023-05-08T04:21:23;102080.25;;;4.42;55.86
69247;BME280;56358;56.328;43.992;2023-05-08T04:23:25;102074.72;;;4.49;56.00
69247;BME280;56358;56.328;43.992;2023-05-08T04:25:27;102079.81;;;4.59;55.45
69247;BME280;56358;56.328;43.992;2023-05-08T04:27:30;102080.44;;;4.67;55.11
69247;BME280;56358;56.328;43.992;2023-05-08T04:29:31;102071.31;;;4.77;54.55
69247;BME280;56358;56.328;43.992;2023-05-08T04:31:33;102004.13;;;4.42;53.80
69247;BME280;56358;56.328;43.992;2023-05-08T04:33:35;102067.94;;;5.02;53.15
69247;BME280;56358;56.328;43.992;2023-05-08T04:35:36;102071.06;;;5.16;52.93
69247;BME280;56358;56.328;43.992;2023-05-08T04:37:37;102044.66;;;5.12;51.95
69247;BME280;56358;56.328;43.992;2023-05-08T04:39:37;102062.00;;;5.24;51.94
69247;BME280;56358;56.328;43.992;2023-05-08T04:41:38;102067.44;;;5.49;51.29
69247;BME280;56358;56.328;43.992;2023-05-08T04:43:39;101982.66;;;5.10;49.89
69247;BME280;56358;56.328;43.992;2023-05-08T04:45:39;102071.22;;;5.70;50.31
69247;BME280;56358;56.328;43.992;2023-05-08T04:47:40;102051.63;;;5.73;49.67
69247;BME280;56358;56.328;43.992;2023-05-08T04:49:41;102046.78;;;5.84;49.25
69247;BME280;56358;56.328;43.992;2023-05-08T04:51:43;102070.72;;;6.14;48.35
69247;BME280;56358;56.328;43.992;2023-05-08T04:53:44;102069.38;;;6.27;48.10
69247;BME280;56358;56.328;43.992;2023-05-08T04:55:44;102046.06;;;6.34;46.86
69247;BME280;56358;56.328;43.992;2023-05-08T04:57:45;102065.78;;;6.53;46.35
69247;BME280;56358;56.328;43.992;2023-05-08T04:59:46;102063.94;;;6.56;46.29
69247;BME280;56358;56.328;43.992;2023-05-08T05:01:47;101974.06;;;6.10;46.22
69247;BME280;56358;56.328;43.992;2023-05-08T05:03:47;102080.19;;;6.73;44.77
69247;BME280;56358;56.328;43.992;2023-05-08T05:05:48;101934.25;;;6.07;44.35
69247;BME280;56358;56.328;43.992;2023-05-08T05:07:49;102070.59;;;6.93;44.46
69247;BME280;56358;56.328;43.992;2023-05-08T05:09:50;102068.16;;;7.10;43.94
69247;BME280;56358;56.328;43.992;2023-05-08T05:11:50;102043.34;;;7.08;43.35
69247;BME280;56358;56.328;43.992;2023-05-08T05:13:51;102007.59;;;6.90;43.34
69247;BME280;56358;56.328;43.992;2023-05-08T05:15:52;102074.44;;;7.31;42.50
69247;BME280;56358;56.328;43.992;2023-05-08T05:17:53;102068.75;;;7.41;43.04
69247;BME280;56358;56.328;43.992;2023-05-08T05:19:54;102072.25;;;7.43;42.18
69247;BME280;56358;56.328;43.992;2023-05-08T05:21:55;102073.94;;;7.45;42.35
69247;BME280;56358;56.328;43.992;2023-05-08T05:23:55;102083.72;;;7.45;42.36
69247;BME280;56358;56.328;43.992;2023-05-08T05:25:56;102075.53;;;7.49;44.14
69247;BME280;56358;56.328;43.992;2023-05-08T05:27:57;102025.06;;;7.21;44.37
69247;BME280;56358;56.328;43.992;2023-05-08T05:29:57;102086.63;;;7.62;44.30
69247;BME280;56358;56.328;43.992;2023-05-08T05:31:58;102075.50;;;7.73;44.26
69247;BME280;56358;56.328;43.992;2023-05-08T05:33:59;102075.31;;;7.78;42.83
69247;BME280;56358;56.328;43.992;2023-05-08T05:35:59;102081.81;;;7.93;42.62
69247;BME280;56358;56.328;43.992;2023-05-08T05:38:00;102083.25;;;8.01;41.24
69247;BME280;56358;56.328;43.992;2023-05-08T05:40:01;102080.38;;;8.06;39.83
69247;BME280;56358;56.328;43.992;2023-05-08T05:42:03;102043.75;;;7.87;39.31
69247;BME280;56358;56.328;43.992;2023-05-08T05:44:03;102007.19;;;7.67;39.02
69247;BME280;56358;56.328;43.992;2023-05-08T05:46:08;102071.25;;;8.12;38.86
69247;BME280;56358;56.328;43.992;2023-05-08T05:48:09;102085.88;;;8.23;38.10
69247;BME280;56358;56.328;43.992;2023-05-08T05:50:10;102075.78;;;8.30;38.26
69247;BME280;56358;56.328;43.992;2023-05-08T05:52:11;102067.00;;;8.28;36.79
69247;BME280;56358;56.328;43.992;2023-05-08T05:54:11;102097.78;;;8.37;34.75
69247;BME280;56358;56.328;43.992;2023-05-08T05:56:13;102009.78;;;7.91;34.11
69247;BME280;56358;56.328;43.992;2023-05-08T05:58:14;102091.97;;;8.49;33.67
69247;BME280;56358;56.328;43.992;2023-05-08T06:00:16;102081.28;;;8.49;33.32
69247;BME280;56358;56.328;43.992;2023-05-08T06:02:17;102086.31;;;8.55;33.31
69247;BME280;56358;56.328;43.992;2023-05-08T06:04:19;102094.94;;;8.62;33.16
69247;BME280;56358;56.328;43.992;2023-05-08T06:06:20;102077.31;;;8.58;33.32
69247;BME280;56358;56.328;43.992;2023-05-08T06:08:21;102054.66;;;8.46;33.88
69247;BME280;56358;56.328;43.992;2023-05-08T06:10:22;102088.41;;;8.69;34.28
69247;BME280;56358;56.328;43.992;2023-05-08T06:12:23;102089.34;;;8.68;33.34
69247;BME280;56358;56.328;43.992;2023-05-08T06:14:24;102103.16;;;8.78;33.17
69247;BME280;56358;56.328;43.992;2023-05-08T06:16:24;102077.72;;;8.69;33.09
69247;BME280;56358;56.328;43.992;2023-05-08T06:18:25;102087.84;;;8.61;33.61
69247;BME280;56358;56.328;43.992;2023-05-08T06:20:26;102083.31;;;8.43;34.87
69247;BME280;56358;56.328;43.992;2023-05-08T06:22:26;102084.69;;;8.31;34.32
69247;BME280;56358;56.328;43.992;2023-05-08T06:24:28;102070.13;;;8.17;32.89
69247;BME280;56358;56.328;43.992;2023-05-08T06:26:29;102084.81;;;8.28;33.39
69247;BME280;56358;56.328;43.992;2023-05-08T06:28:30;102087.44;;;8.29;31.52
69247;BME280;56358;56.328;43.992;2023-05-08T06:30:30;102090.22;;;8.26;31.87
69247;BME280;56358;56.328;43.992;2023-05-08T06:32:31;102081.88;;;8.34;31.59
69247;BME280;56358;56.328;43.992;2023-05-08T06:34:32;102084.47;;;8.58;32.17
69247;BME280;56358;56.328;43.992;2023-05-08T06:36:32;102072.81;;;8.79;31.56
69247;BME280;56358;56.328;43.992;2023-05-08T06:38:33;102075.09;;;9.08;30.07
69247;BME280;56358;56.328;43.992;2023-05-08T06:40:34;102005.28;;;8.74;30.19
69247;BME280;56358;56.328;43.992;2023-05-08T06:42:35;102075.56;;;9.36;30.19
69247;BME280;56358;56.328;43.992;2023-05-08T06:44:36;102076.25;;;9.40;29.86
69247;BME280;56358;56.328;43.992;2023-05-08T06:46:36;102010.22;;;9.21;29.16
69247;BME280;56358;56.328;43.992;2023-05-08T06:48:37;102084.59;;;9.89;29.78
69247;BME280;56358;56.328;43.992;2023-05-08T06:50:38;102086.34;;;9.90;29.99
69247;BME280;56358;56.328;43.992;2023-05-08T06:52:40;102006.13;;;9.51;28.96
69247;BME280;56358;56.328;43.992;2023-05-08T06:54:41;102094.75;;;9.83;28.64
69247;BME280;56358;56.328;43.992;2023-05-08T06:56:42;102072.63;;;9.60;28.95
69247;BME280;56358;56.328;43.992;2023-05-08T06:58:43;102088.44;;;9.47;29.60
69247;BME280;56358;56.328;43.992;2023-05-08T07:00:43;102095.41;;;9.31;29.97
69247;BME280;56358;56.328;43.992;2023-05-08T07:02:45;102049.69;;;8.97;29.63
69247;BME280;56358;56.328;43.992;2023-05-08T07:04:46;102083.19;;;9.06;29.44
69247;BME280;56358;56.328;43.992;2023-05-08T07:06:46;102077.78;;;9.27;29.86
69247;BME280;56358;56.328;43.992;2023-05-08T07:08:48;102027.44;;;9.16;30.30
69247;BME280;56358;56.328;43.992;2023-05-08T07:10:48;101977.69;;;9.12;30.20
69247;BME280;56358;56.328;43.992;2023-05-08T07:12:49;102008.03;;;9.49;29.67
69247;BME280;56358;56.328;43.992;2023-05-08T07:14:50;102064.75;;;9.94;27.80
69247;BME280;56358;56.328;43.992;2023-05-08T07:16:51;102051.09;;;9.81;28.32
69247;BME280;56358;56.328;43.992;2023-05-08T07:18:51;101995.75;;;9.45;28.34
69247;BME280;56358;56.328;43.992;2023-05-08T07:20:52;102015.28;;;9.64;27.99
69247;BME280;56358;56.328;43.992;2023-05-08T07:22:53;102004.13;;;9.37;28.17
69247;BME280;56358;56.328;43.992;2023-05-08T07:24:54;102059.97;;;9.64;27.65
69247;BME280;56358;56.328;43.992;2023-05-08T07:26:54;102068.31;;;9.75;27.64
69247;BME280;56358;56.328;43.992;2023-05-08T07:28:55;102037.72;;;9.62;27.93
69247;BME280;56358;56.328;43.992;2023-05-08T07:30:56;102082.06;;;9.86;27.68
69247;BME280;56358;56.328;43.992;2023-05-08T07:32:57;102071.34;;;9.86;28.37
69247;BME280;56358;56.328;43.992;2023-05-08T07:34:58;102081.28;;;10.02;28.38
69247;BME280;56358;56.328;43.992;2023-05-08T07:36:58;102056.22;;;9.85;27.77
69247;BME280;56358;56.328;43.992;2023-05-08T07:38:59;102086.81;;;9.99;27.77
69247;BME280;56358;56.328;43.992;2023-05-08T07:41:00;102075.88;;;10.03;28.60
69247;BME280;56358;56.328;43.992;2023-05-08T07:43:01;102079.16;;;9.91;28.62
69247;BME280;56358;56.328;43.992;2023-05-08T07:45:02;101994.84;;;9.44;28.91
69247;BME280;56358;56.328;43.992;2023-05-08T07:47:05;102101.69;;;9.87;27.97
69247;BME280;56358;56.328;43.992;2023-05-08T07:49:06;102077.97;;;9.79;27.17
69247;BME280;56358;56.328;43.992;2023-05-08T07:51:06;102095.31;;;9.89;27.37
69247;BME280;56358;56.328;43.992;2023-05-08T07:53:07;102076.91;;;10.01;26.96
69247;BME280;56358;56.328;43.992;2023-05-08T07:55:08;102064.53;;;9.98;25.98
69247;BME280;56358;56.328;43.992;2023-05-08T07:57:09;102081.34;;;10.19;26.25
69247;BME280;56358;56.328;43.992;2023-05-08T07:59:09;102082.91;;;10.23;27.10
69247;BME280;56358;56.328;43.992;2023-05-08T08:01:10;102081.47;;;10.34;27.48
69247;BME280;56358;56.328;43.992;2023-05-08T08:03:11;102080.41;;;10.38;26.24
69247;BME280;56358;56.328;43.992;2023-05-08T08:05:12;102056.66;;;10.30;26.67
69247;BME280;56358;56.328;43.992;2023-05-08T08:07:13;102071.94;;;10.63;26.72
69247;BME280;56358;56.328;43.992;2023-05-08T08:09:13;101994.13;;;10.30;26.75
69247;BME280;56358;56.328;43.992;2023-05-08T08:11:14;101997.59;;;10.49;25.75
69247;BME280;56358;56.328;43.992;2023-05-08T08:13:15;102071.00;;;10.98;25.70
69247;BME280;56358;56.328;43.992;2023-05-08T08:15:17;102063.69;;;11.01;26.21
69247;BME280;56358;56.328;43.992;2023-05-08T08:17:17;102063.13;;;10.95;25.63
69247;BME280;56358;56.328;43.992;2023-05-08T08:19:18;102069.63;;;10.90;25.40
69247;BME280;56358;56.328;43.992;2023-05-08T08:21:19;102061.94;;;11.00;25.47
69247;BME280;56358;56.328;43.992;2023-05-08T08:23:19;102058.66;;;11.11;25.67
69247;BME280;56358;56.328;43.992;2023-05-08T08:25:20;102067.25;;;11.18;25.43
69247;BME280;56358;56.328;43.992;2023-05-08T08:27:22;101974.75;;;10.92;25.17
69247;BME280;56358;56.328;43.992;2023-05-08T08:29:23;102062.31;;;11.58;25.61
69247;BME280;56358;56.328;43.992;2023-05-08T08:31:23;102057.53;;;11.79;25.90
69247;BME280;56358;56.328;43.992;2023-05-08T08:33:29;102061.88;;;11.98;26.47
69247;BME280;56358;56.328;43.992;2023-05-08T08:35:31;102068.97;;;11.99;24.58
69247;BME280;56358;56.328;43.992;2023-05-08T08:37:32;102035.09;;;11.80;24.13
69247;BME280;56358;56.328;43.992;2023-05-08T08:39:33;101937.63;;;11.16;24.56
69247;BME280;56358;56.328;43.992;2023-05-08T08:41:35;102057.16;;;11.85;24.00
69247;BME280;56358;56.328;43.992;2023-05-08T08:43:38;102054.97;;;11.62;24.83
69247;BME280;56358;56.328;43.992;2023-05-08T08:45:42;101999.34;;;11.32;25.83
69247;BME280;56358;56.328;43.992;2023-05-08T08:47:44;102060.44;;;11.60;26.82
69247;BME280;56358;56.328;43.992;2023-05-08T08:49:49;102053.41;;;11.57;25.57
69247;BME280;56358;56.328;43.992;2023-05-08T08:51:54;102027.38;;;11.74;25.36
69247;BME280;56358;56.328;43.992;2023-05-08T08:54:03;102057.00;;;12.04;25.53
69247;BME280;56358;56.328;43.992;2023-05-08T08:56:06;102043.06;;;11.98;24.44
69247;BME280;56358;56.328;43.992;2023-05-08T08:58:27;102016.63;;;11.74;25.16
69247;BME280;56358;56.328;43.992;2023-05-08T09:00:31;102043.56;;;11.88;25.18
69247;BME280;56358;56.328;43.992;2023-05-08T09:02:33;102044.72;;;11.84;25.67
69247;BME280;56358;56.328;43.992;2023-05-08T09:04:35;102041.53;;;11.62;26.50
69247;BME280;56358;56.328;43.992;2023-05-08T09:06:37;102051.06;;;11.51;27.48
69247;BME280;56358;56.328;43.992;2023-05-08T09:08:39;101982.13;;;10.88;26.76
69247;BME280;56358;56.328;43.992;2023-05-08T09:10:40;102040.69;;;11.29;26.79
69247;BME280;56358;56.328;43.992;2023-05-08T09:12:41;102046.28;;;11.56;25.74
69247;BME280;56358;56.328;43.992;2023-05-08T09:14:42;102052.28;;;11.92;24.77
69247;BME280;56358;56.328;43.992;2023-05-08T09:16:42;102030.88;;;11.90;24.92
69247;BME280;56358;56.328;43.992;2023-05-08T09:18:44;102031.94;;;11.88;25.03
69247;BME280;56358;56.328;43.992;2023-05-08T09:20:45;102035.66;;;11.85;25.49
69247;BME280;56358;56.328;43.992;2023-05-08T09:22:46;102044.22;;;11.92;25.76
69247;BME280;56358;56.328;43.992;2023-05-08T09:26:59;101989.22;;;11.37;25.54
69247;BME280;56358;56.328;43.992;2023-05-08T09:31:13;102041.66;;;12.66;24.61
69247;BME280;56358;56.328;43.992;2023-05-08T09:33:14;102034.69;;;13.34;24.31
69247;BME280;56358;56.328;43.992;2023-05-08T09:35:15;102049.06;;;13.89;23.90
69247;BME280;56358;56.328;43.992;2023-05-08T09:37:16;101987.44;;;14.36;22.33
69247;BME280;56358;56.328;43.992;2023-05-08T09:39:22;102025.66;;;15.07;20.59
69247;BME280;56358;56.328;43.992;2023-05-08T09:41:24;102029.44;;;14.91;21.75
69247;BME280;56358;56.328;43.992;2023-05-08T09:43:25;102014.13;;;14.53;22.18
69247;BME280;56358;56.328;43.992;2023-05-08T09:45:30;102028.75;;;14.23;22.40
69247;BME280;56358;56.328;43.992;2023-05-08T09:47:31;101996.31;;;13.72;22.80
69247;BME280;56358;56.328;43.992;2023-05-08T09:49:35;102023.81;;;13.35;23.39
69247;BME280;56358;56.328;43.992;2023-05-08T09:51:35;102039.81;;;13.10;23.99
69247;BME280;56358;56.328;43.992;2023-05-08T09:53:36;102036.00;;;12.85;23.93
69247;BME280;56358;56.328;43.992;2023-05-08T09:55:46;102038.88;;;12.67;24.11
69247;BME280;56358;56.328;43.992;2023-05-08T09:58:05;102038.22;;;12.78;24.86
69247;BME280;56358;56.328;43.992;2023-05-08T10:02:09;102049.16;;;12.61;26.32
69247;BME280;56358;56.328;43.992;2023-05-08T10:04:11;102043.47;;;12.51;26.21
69247;BME280;56358;56.328;43.992;2023-05-08T10:06:12;101971.66;;;12.08;25.42
69247;BME280;56358;56.328;43.992;2023-05-08T10:08:18;102044.81;;;12.44;25.78
69247;BME280;56358;56.328;43.992;2023-05-08T10:10:23;102042.34;;;12.84;26.22
69247;BME280;56358;56.328;43.992;2023-05-08T10:12:27;102023.81;;;13.77;24.88
69247;BME280;56358;56.328;43.992;2023-05-08T10:14:28;102032.34;;;14.37;24.11
69247;BME280;56358;56.328;43.992;2023-05-08T10:16:29;102030.94;;;14.57;23.50
69247;BME280;56358;56.328;43.992;2023-05-08T10:18:32;102032.25;;;14.51;23.63
69247;BME280;56358;56.328;43.992;2023-05-08T10:20:38;102029.72;;;14.22;23.31
69247;BME280;56358;56.328;43.992;2023-05-08T10:22:42;101966.78;;;13.70;23.98
69247;BME280;56358;56.328;43.992;2023-05-08T10:24:43;102023.28;;;13.85;23.71
69247;BME280;56358;56.328;43.992;2023-05-08T10:27:08;102004.84;;;13.51;23.44
69247;BME280;56358;56.328;43.992;2023-05-08T10:29:16;102002.00;;;13.25;23.37
69247;BME280;56358;56.328;43.992;2023-05-08T10:31:21;101884.50;;;12.27;24.21
69247;BME280;56358;56.328;43.992;2023-05-08T10:33:29;102016.84;;;12.75;24.51
69247;BME280;56358;56.328;43.992;2023-05-08T10:35:31;102035.97;;;12.56;25.74
69247;BME280;56358;56.328;43.992;2023-05-08T10:37:32;102029.59;;;12.28;26.68
69247;BME280;56358;56.328;43.992;2023-05-08T10:39:35;102025.56;;;12.21;26.74
69247;BME280;56358;56.328;43.992;2023-05-08T10:41:37;102026.66;;;12.02;27.89
69247;BME280;56358;56.328;43.992;2023-05-08T10:43:41;102037.78;;;11.96;28.02
69247;BME280;56358;56.328;43.992;2023-05-08T10:45:42;102039.19;;;12.18;27.93
69247;BME280;56358;56.328;43.992;2023-05-08T10:47:49;101939.84;;;11.70;26.67
69247;BME280;56358;56.328;43.992;2023-05-08T10:49:59;102018.13;;;12.10;27.29
69247;BME280;56358;56.328;43.992;2023-05-08T10:52:23;102023.16;;;12.16;28.01
69247;BME280;56358;56.328;43.992;2023-05-08T10:57:06;102010.38;;;11.89;27.52
69247;BME280;56358;56.328;43.992;2023-05-08T10:59:17;101971.94;;;11.57;27.64
69247;BME280;56358;56.328;43.992;2023-05-08T11:01:19;102024.56;;;11.91;27.60
69247;BME280;56358;56.328;43.992;2023-05-08T11:03:22;102024.16;;;11.83;28.03
69247;BME280;56358;56.328;43.992;2023-05-08T11:05:24;101952.91;;;11.46;28.54
69247;BME280;56358;56.328;43.992;2023-05-08T11:07:29;102020.31;;;12.34;27.66
69247;BME280;56358;56.328;43.992;2023-05-08T11:09:50;102025.88;;;13.17;26.41